Time;durP1;ratioP1;P1;durP2;ratioP2;P2;SDS_P1;SDS_P2;PMS_P1;PMS_P2;Temp;Humidity;BMP_temperature;BMP_pressure;BME280_temperature;BME280_humidity;BME280_pressure;Samples;Min_cycle;Max_cycle;Signal;HPM_P1;HPM_P2
2021/06/30 00:02:04;;;;;;;16.02;10.70;;;;;;;17.46;95.67;100649.72;5019111;28;20026;-77
2021/06/30 00:04:29;;;;;;;15.52;11.70;;;;;;;17.46;95.01;100646.16;5017284;28;20025;-78
2021/06/30 00:06:55;;;;;;;13.65;11.38;;;;;;;17.42;95.98;100629.25;5034175;28;20036;-77
2021/06/30 00:09:20;;;;;;;14.75;12.07;;;;;;;17.46;96.18;100633.44;5021403;28;20040;-77
2021/06/30 00:11:46;;;;;;;12.38;10.93;;;;;;;17.59;96.25;100640.47;5037308;28;20079;-78
2021/06/30 00:14:13;;;;;;;13.85;11.27;;;;;;;17.58;96.24;100633.34;5037457;28;20033;-78
2021/06/30 00:16:39;;;;;;;13.23;10.35;;;;;;;17.52;96.05;100628.44;5052314;28;20357;-77
2021/06/30 00:19:10;;;;;;;12.35;9.73;;;;;;;17.39;96.19;100615.97;5053574;28;20036;-77
2021/06/30 00:21:35;;;;;;;13.98;10.57;;;;;;;17.37;96.12;100628.81;5037115;28;20032;-77
2021/06/30 00:24:00;;;;;;;20.35;11.52;;;;;;;17.26;96.26;100618.06;5037174;28;20025;-77
2021/06/30 00:26:26;;;;;;;13.52;10.98;;;;;;;17.23;96.60;100621.03;5036855;28;20025;-77
2021/06/30 00:28:51;;;;;;;13.02;11.30;;;;;;;17.16;96.68;100612.59;5053566;28;20028;-77
2021/06/30 00:31:18;;;;;;;13.30;10.70;;;;;;;17.07;96.75;100615.25;5036976;28;20104;-78
2021/06/30 00:33:44;;;;;;;16.05;11.48;;;;;;;17.12;97.11;100610.28;5037154;28;20048;-78
2021/06/30 00:36:10;;;;;;;14.15;10.68;;;;;;;17.07;97.30;100620.69;5036819;28;20362;-78
2021/06/30 00:38:35;;;;;;;13.20;11.80;;;;;;;17.02;96.79;100616.50;5053415;28;20025;-77
2021/06/30 00:41:01;;;;;;;13.00;10.65;;;;;;;17.05;96.73;100620.81;5033577;28;20428;-78
2021/06/30 00:43:27;;;;;;;12.38;10.85;;;;;;;17.00;96.42;100617.63;5033849;28;20075;-77
2021/06/30 00:45:52;;;;;;;18.02;11.68;;;;;;;17.00;97.05;100613.06;5033388;28;20026;-78
2021/06/30 00:48:17;;;;;;;13.15;11.70;;;;;;;16.99;97.40;100605.94;5016614;28;20026;-78
2021/06/30 00:50:43;;;;;;;16.35;12.25;;;;;;;17.04;97.12;100605.53;5039219;28;20021;-77
2021/06/30 00:53:08;;;;;;;14.35;12.68;;;;;;;17.02;97.45;100605.66;5052987;28;20033;-78
2021/06/30 00:55:33;;;;;;;16.02;13.65;;;;;;;17.07;98.09;100601.69;5033051;28;20021;-77
2021/06/30 00:57:59;;;;;;;16.92;13.50;;;;;;;17.14;97.70;100614.56;5016705;28;20021;-78
2021/06/30 01:00:24;;;;;;;16.98;13.60;;;;;;;17.20;97.32;100616.75;5033143;28;20021;-78
2021/06/30 01:02:50;;;;;;;17.55;15.23;;;;;;;17.29;96.95;100611.47;5016723;28;20064;-78
2021/06/30 01:05:16;;;;;;;24.98;20.40;;;;;;;17.29;97.50;100598.78;5039962;28;20096;-78
2021/06/30 01:07:42;;;;;;;30.40;23.55;;;;;;;17.35;97.93;100610.94;5043777;28;20021;-77
2021/06/30 01:10:09;;;;;;;21.95;17.08;;;;;;;17.29;97.25;100592.47;5034448;28;20025;-76
2021/06/30 01:12:34;;;;;;;33.90;25.80;;;;;;;17.37;97.58;100596.22;5032948;28;20053;-78
2021/06/30 01:15:18;;;;;;;31.48;24.10;;;;;;;17.39;97.91;100602.41;5033020;28;20075;-78
2021/06/30 01:17:44;;;;;;;29.48;24.05;;;;;;;17.38;97.44;100599.81;5033219;28;20025;-77
2021/06/30 01:20:10;;;;;;;35.00;27.88;;;;;;;17.40;97.49;100595.94;5024116;28;20021;-79
2021/06/30 01:22:35;;;;;;;38.30;26.92;;;;;;;17.40;97.82;100600.53;5036072;28;20546;-78
2021/06/30 01:25:00;;;;;;;40.70;27.83;;;;;;;17.41;97.81;100602.25;5052547;28;20108;-78
2021/06/30 01:27:31;;;;;;;40.70;31.33;;;;;;;17.47;97.47;100593.53;5052655;28;20116;-78
2021/06/30 01:29:57;;;;;;;49.42;34.00;;;;;;;17.46;97.76;100587.25;5026429;28;20475;-79
2021/06/30 01:32:24;;;;;;;49.85;34.88;;;;;;;17.45;97.93;100598.25;5016170;28;20030;-78
2021/06/30 01:34:49;;;;;;;46.00;32.72;;;;;;;17.49;97.65;100593.41;5017431;28;20037;-78
2021/06/30 01:37:14;;;;;;;52.30;35.90;;;;;;;17.50;97.59;100592.41;5052189;28;20041;-78
2021/06/30 01:39:39;;;;;;;53.85;35.03;;;;;;;17.53;97.03;100587.56;5035682;28;20391;-78
2021/06/30 01:42:05;;;;;;;53.30;36.88;;;;;;;17.53;97.07;100597.59;5053452;28;20025;-78
2021/06/30 01:44:30;;;;;;;54.22;37.42;;;;;;;17.54;97.45;100602.84;5051989;28;20094;-78
2021/06/30 01:46:56;;;;;;;60.97;36.83;;;;;;;17.49;97.70;100596.13;5035627;28;20025;-78
2021/06/30 01:49:21;;;;;;;57.92;37.42;;;;;;;17.55;97.75;100611.91;5035446;28;20029;-77
2021/06/30 01:51:46;;;;;;;56.25;38.13;;;;;;;17.51;97.36;100607.72;5035314;28;20460;-78
2021/06/30 01:54:14;;;;;;;64.18;40.00;;;;;;;17.55;97.34;100601.03;5052012;28;20109;-77
2021/06/30 01:56:40;;;;;;;67.57;40.17;;;;;;;17.55;97.17;100607.31;5042701;28;20209;-77
2021/06/30 01:59:11;;;;;;;74.13;43.17;;;;;;;17.63;97.63;100615.63;5015542;28;20393;-77
2021/06/30 02:01:37;;;;;;;68.05;39.38;;;;;;;17.63;96.98;100615.63;5015623;28;20362;-77
2021/06/30 02:04:02;;;;;;;73.55;41.65;;;;;;;17.66;96.70;100617.19;5015705;28;20544;-77
2021/06/30 02:06:28;;;;;;;73.68;43.30;;;;;;;17.73;97.18;100623.81;5046885;28;20028;-77
2021/06/30 02:08:58;;;;;;;73.33;41.80;;;;;;;17.72;97.33;100618.50;5035342;28;20032;-77
2021/06/30 02:11:25;;;;;;;76.13;44.42;;;;;;;17.73;96.82;100620.22;5035755;28;20423;-77
2021/06/30 02:13:50;;;;;;;84.97;49.22;;;;;;;17.68;96.91;100620.63;5037323;28;20025;-77
2021/06/30 02:16:16;;;;;;;76.70;43.53;;;;;;;17.70;97.11;100632.22;5055869;28;20051;-78
2021/06/30 02:18:41;;;;;;;79.43;44.30;;;;;;;17.68;97.00;100617.91;5036816;28;20025;-77
2021/06/30 02:21:07;;;;;;;82.28;45.15;;;;;;;17.71;97.26;100617.66;5044290;28;20029;-77
2021/06/30 02:23:33;;;;;;;82.20;44.40;;;;;;;17.71;96.79;100609.50;5030314;28;20116;-78
2021/06/30 02:25:58;;;;;;;79.03;44.05;;;;;;;17.74;97.02;100621.94;5036040;28;20108;-77
2021/06/30 02:28:23;;;;;;;73.25;43.08;;;;;;;17.66;97.07;100603.59;5036141;28;20377;-78
2021/06/30 02:30:49;;;;;;;74.68;42.55;;;;;;;17.74;97.03;100617.38;5036152;28;20109;-77
2021/06/30 02:33:14;;;;;;;86.32;48.60;;;;;;;17.74;96.92;100611.94;5039031;28;20029;-78
2021/06/30 02:35:41;;;;;;;85.00;47.53;;;;;;;17.76;96.65;100604.50;5039192;28;20064;-78
2021/06/30 02:38:06;;;;;;;93.82;48.05;;;;;;;17.84;96.88;100617.41;5039180;28;20037;-78
2021/06/30 02:40:32;;;;;;;88.63;46.80;;;;;;;17.81;97.09;100612.28;5055814;28;20079;-78
2021/06/30 02:42:57;;;;;;;91.57;49.10;;;;;;;17.80;96.98;100611.38;5038973;28;20052;-78
2021/06/30 02:45:23;;;;;;;79.93;43.30;;;;;;;17.87;97.32;100617.16;5055470;28;20476;-78
2021/06/30 02:47:49;;;;;;;98.28;51.17;;;;;;;17.85;97.03;100614.56;5055735;28;20042;-78
2021/06/30 02:50:16;;;;;;;87.20;47.45;;;;;;;17.84;96.98;100606.56;5038826;28;20063;-78
2021/06/30 02:52:42;;;;;;;89.68;49.85;;;;;;;17.92;96.55;100614.88;5038705;28;20061;-79
2021/06/30 02:55:08;;;;;;;90.82;52.33;;;;;;;17.92;97.37;100611.31;5038789;28;20037;-78
2021/06/30 02:57:34;;;;;;;97.55;51.33;;;;;;;17.98;96.80;100608.00;5023560;28;20029;-78
2021/06/30 02:59:59;;;;;;;97.93;49.45;;;;;;;18.01;96.31;100602.28;5018991;28;20032;-79
2021/06/30 03:02:25;;;;;;;81.78;45.78;;;;;;;17.95;96.72;100598.28;5019099;28;20422;-78
2021/06/30 03:04:50;;;;;;;95.22;47.13;;;;;;;17.83;96.96;100586.66;5035105;28;20033;-78
2021/06/30 03:07:16;;;;;;;85.40;43.60;;;;;;;17.89;96.96;100601.53;5018926;28;20025;-77
2021/06/30 03:09:41;;;;;;;82.72;45.55;;;;;;;17.91;96.74;100596.84;5035418;28;20021;-78
2021/06/30 03:12:07;;;;;;;83.07;46.83;;;;;;;17.92;96.52;100587.69;5035106;28;20029;-78
2021/06/30 03:14:32;;;;;;;82.88;46.03;;;;;;;17.87;96.68;100595.41;5026227;28;20362;-78
2021/06/30 03:16:57;;;;;;;82.50;44.13;;;;;;;17.93;96.57;100613.00;5018862;28;20172;-78
2021/06/30 03:19:23;;;;;;;75.90;42.95;;;;;;;17.96;96.68;100610.00;5035123;28;20075;-78
2021/06/30 03:21:49;;;;;;;74.97;42.22;;;;;;;17.95;96.67;100600.16;5035094;28;20029;-78
2021/06/30 03:24:14;;;;;;;82.25;45.13;;;;;;;17.95;96.94;100602.84;5054292;28;20029;-78
2021/06/30 03:26:40;;;;;;;80.03;43.38;;;;;;;17.96;96.43;100596.41;5054294;28;20029;-78
2021/06/30 03:29:05;;;;;;;74.13;42.42;;;;;;;17.92;96.51;100592.28;5055987;28;20028;-78
2021/06/30 03:31:31;;;;;;;76.75;43.55;;;;;;;17.97;95.76;100600.88;5054854;28;20020;-78
2021/06/30 03:33:56;;;;;;;73.22;40.28;;;;;;;18.00;96.25;100601.44;5037976;28;20052;-78
2021/06/30 03:36:22;;;;;;;73.95;41.97;;;;;;;18.04;96.07;100600.16;5054496;28;20049;-78
2021/06/30 03:38:47;;;;;;;70.45;39.30;;;;;;;18.12;95.57;100596.72;5034971;28;20396;-78
2021/06/30 03:41:13;;;;;;;69.07;38.75;;;;;;;18.14;94.47;100602.03;5042944;28;20464;-78
2021/06/30 03:43:38;;;;;;;67.72;39.38;;;;;;;18.17;94.55;100605.31;5037489;28;20107;-78
2021/06/30 03:46:04;;;;;;;63.17;39.00;;;;;;;18.19;94.35;100586.13;5034432;28;20113;-79
2021/06/30 03:48:29;;;;;;;59.00;36.20;;;;;;;18.22;93.78;100605.75;5035790;28;20104;-78
2021/06/30 03:50:54;;;;;;;62.20;36.45;;;;;;;18.21;94.07;100604.00;5032466;28;20029;-78
2021/06/30 03:53:20;;;;;;;49.03;33.92;;;;;;;18.30;92.76;100613.19;5025461;28;20033;-78
2021/06/30 03:55:45;;;;;;;50.78;32.70;;;;;;;18.27;91.98;100600.72;5054092;28;20078;-78
2021/06/30 03:58:10;;;;;;;45.55;31.80;;;;;;;18.30;91.85;100626.78;5054030;28;20025;-78
2021/06/30 04:00:36;;;;;;;49.78;33.30;;;;;;;18.34;91.67;100609.19;5036376;28;20056;-78
2021/06/30 04:03:01;;;;;;;49.60;32.75;;;;;;;18.38;92.04;100612.47;5017891;28;20014;-78
2021/06/30 04:05:27;;;;;;;47.53;31.00;;;;;;;18.37;91.93;100616.19;5035459;28;20028;-80
2021/06/30 04:07:52;;;;;;;43.45;30.33;;;;;;;18.37;91.31;100618.91;5034076;28;20060;-78
2021/06/30 04:10:18;;;;;;;44.40;30.33;;;;;;;18.43;91.32;100615.63;5034119;28;20112;-78
2021/06/30 04:12:43;;;;;;;40.90;29.85;;;;;;;18.34;91.44;100613.78;5034090;28;20029;-78
2021/06/30 04:15:09;;;;;;;38.63;29.13;;;;;;;18.51;91.01;100621.19;5034089;28;20030;-78
2021/06/30 04:17:34;;;;;;;38.17;28.83;;;;;;;18.40;90.57;100605.88;5033842;28;20385;-78
2021/06/30 04:20:02;;;;;;;34.65;28.08;;;;;;;18.48;89.83;100616.06;5033838;28;20040;-78
2021/06/30 04:22:27;;;;;;;;;;;;;;;18.58;89.15;100616.03;5037243;28;20021;-78
2021/06/30 04:24:53;;;;;;;34.28;26.50;;;;;;;18.76;87.50;100613.44;5017407;28;19921;-77
2021/06/30 04:27:18;;;;;;;35.00;25.17;;;;;;;18.75;86.31;100601.69;5050844;28;20052;-78
2021/06/30 04:29:43;;;;;;;31.52;25.63;;;;;;;19.01;85.39;100601.09;5041023;28;20147;-78
2021/06/30 04:32:09;;;;;;;32.28;27.23;;;;;;;19.04;84.91;100595.34;5039305;28;20055;-78
2021/06/30 04:34:34;;;;;;;31.55;24.42;;;;;;;19.19;85.46;100593.84;5027119;28;20132;-77
2021/06/30 04:36:59;;;;;;;29.08;23.33;;;;;;;19.29;85.30;100597.41;5033138;28;20220;-78
2021/06/30 04:39:27;;;;;;;31.35;25.17;;;;;;;19.31;85.11;100581.78;5017154;28;20033;-78
2021/06/30 04:41:52;;;;;;;33.72;25.15;;;;;;;19.35;83.98;100579.59;5017277;28;20025;-78
2021/06/30 04:44:18;;;;;;;28.70;23.77;;;;;;;19.44;83.68;100581.41;5033303;28;20021;-78
2021/06/30 04:46:43;;;;;;;31.92;25.35;;;;;;;19.57;82.76;100588.41;5019777;28;20021;-78
2021/06/30 04:49:08;;;;;;;35.65;25.52;;;;;;;19.73;81.99;100596.81;5033100;28;20022;-77
2021/06/30 04:51:33;;;;;;;30.85;25.48;;;;;;;19.64;82.58;100592.22;5033393;28;20037;-77
2021/06/30 04:53:59;;;;;;;32.05;25.23;;;;;;;19.48;82.62;100598.34;5016679;28;20033;-78
2021/06/30 04:56:27;;;;;;;36.17;27.95;;;;;;;19.49;82.22;100602.75;5043375;28;20037;-78
2021/06/30 04:58:56;;;;;;;32.03;26.60;;;;;;;19.49;83.04;100611.78;5053103;28;20078;-78
2021/06/30 05:01:22;;;;;;;31.83;26.23;;;;;;;19.45;83.22;100610.41;5052257;28;20094;-77
2021/06/30 05:03:48;;;;;;;31.45;25.80;;;;;;;19.43;83.78;100597.94;5036355;28;20071;-77
2021/06/30 05:06:13;;;;;;;32.08;24.48;;;;;;;19.46;83.76;100603.94;5036557;28;20419;-78
2021/06/30 05:08:39;;;;;;;34.60;28.00;;;;;;;19.44;83.94;100600.50;5036443;28;20025;-78
2021/06/30 05:11:04;;;;;;;32.63;26.02;;;;;;;19.31;84.55;100600.84;5053091;28;20033;-78
2021/06/30 05:13:29;;;;;;;30.60;24.52;;;;;;;19.27;85.03;100595.84;5052880;28;20079;-77
2021/06/30 05:15:55;;;;;;;28.60;23.45;;;;;;;19.20;86.09;100613.81;5016423;28;20557;-78
2021/06/30 05:18:20;;;;;;;30.88;25.33;;;;;;;19.23;84.81;100608.03;5033068;28;20044;-78
2021/06/30 05:20:47;;;;;;;33.40;26.38;;;;;;;19.23;84.20;100621.66;5041972;28;20494;-77
2021/06/30 05:23:12;;;;;;;32.30;24.98;;;;;;;19.18;83.94;100621.25;5052476;28;20029;-77
2021/06/30 05:25:37;;;;;;;33.90;26.08;;;;;;;19.24;83.98;100624.25;5052746;28;20032;-78
2021/06/30 05:28:03;;;;;;;31.75;24.45;;;;;;;19.11;84.13;100613.66;5035781;28;20099;-78
2021/06/30 05:30:28;;;;;;;37.13;28.25;;;;;;;19.09;84.21;100609.38;5037632;28;20041;-78
2021/06/30 05:32:53;;;;;;;31.25;24.58;;;;;;;19.08;84.72;100607.69;5032548;28;20026;-78
2021/06/30 05:35:19;;;;;;;35.78;26.45;;;;;;;19.10;84.76;100611.97;5032682;28;20536;-78
2021/06/30 05:37:44;;;;;;;35.83;27.58;;;;;;;19.14;84.59;100607.91;5032303;28;20038;-78
2021/06/30 05:40:10;;;;;;;32.63;26.05;;;;;;;19.27;84.03;100595.84;5032571;28;20481;-78
2021/06/30 05:42:35;;;;;;;31.20;24.30;;;;;;;19.22;85.18;100598.16;5025216;28;20538;-77
2021/06/30 05:45:01;;;;;;;32.55;25.27;;;;;;;19.32;84.84;100593.53;5017861;28;20120;-78
2021/06/30 05:47:26;;;;;;;35.08;26.33;;;;;;;19.37;83.71;100584.91;5035158;28;20119;-79
2021/06/30 05:49:51;;;;;;;30.75;24.77;;;;;;;19.43;84.05;100593.34;5035564;28;20507;-78
2021/06/30 05:52:17;;;;;;;31.20;23.05;;;;;;;19.58;84.29;100592.81;5032232;28;20025;-78
2021/06/30 05:54:42;;;;;;;34.25;24.58;;;;;;;19.63;83.44;100587.78;5017953;28;20021;-78
2021/06/30 05:57:08;;;;;;;31.70;25.85;;;;;;;19.72;82.39;100598.66;5015749;28;20469;-78
2021/06/30 05:59:33;;;;;;;30.92;23.90;;;;;;;19.74;82.99;100598.50;5015830;28;20365;-78
2021/06/30 06:01:58;;;;;;;35.55;26.17;;;;;;;19.83;82.86;100610.38;5032400;28;20022;-78
2021/06/30 06:04:24;;;;;;;29.05;24.20;;;;;;;19.87;82.17;100604.47;5015692;28;20120;-78
2021/06/30 06:06:49;;;;;;;32.55;25.25;;;;;;;19.85;82.65;100600.19;5040562;28;20021;-78
2021/06/30 06:09:14;;;;;;;34.30;27.27;;;;;;;19.75;82.60;100587.47;5035701;28;20494;-78
2021/06/30 06:11:40;;;;;;;36.30;26.95;;;;;;;19.61;83.60;100587.06;5052009;28;20547;-78
2021/06/30 06:14:05;;;;;;;34.17;26.60;;;;;;;19.66;82.09;100593.78;5046942;28;20026;-78
2021/06/30 06:16:31;;;;;;;32.35;24.48;;;;;;;19.67;82.69;100600.09;5015655;28;20030;-78
2021/06/30 06:18:57;;;;;;;31.77;24.05;;;;;;;19.68;82.17;100599.06;5015878;28;20030;-78
2021/06/30 06:21:22;;;;;;;33.25;25.08;;;;;;;19.67;82.35;100589.19;5031949;28;20362;-78
2021/06/30 06:23:47;;;;;;;30.30;24.42;;;;;;;19.72;82.33;100595.91;5015474;28;20021;-77
2021/06/30 06:26:14;;;;;;;31.73;23.33;;;;;;;19.63;82.87;100601.41;5015448;28;20056;-78
2021/06/30 06:28:39;;;;;;;29.15;22.17;;;;;;;19.60;83.16;100596.25;5023455;28;20017;-77
2021/06/30 06:31:09;;;;;;;32.25;23.20;;;;;;;19.56;82.71;100592.97;5051913;28;20104;-78
2021/06/30 06:33:34;;;;;;;32.03;24.02;;;;;;;19.54;83.39;100604.03;5018023;28;20049;-79
2021/06/30 06:35:59;;;;;;;28.05;22.42;;;;;;;19.55;83.38;100594.84;5031920;28;20041;-78
2021/06/30 06:38:25;;;;;;;28.73;23.10;;;;;;;19.71;82.88;100596.94;5034339;28;20029;-79
2021/06/30 06:40:51;;;;;;;31.13;24.38;;;;;;;19.82;82.28;100605.91;5051733;28;20043;-79
2021/06/30 06:43:16;;;;;;;31.77;23.33;;;;;;;20.12;80.45;100602.84;5037849;28;20032;-79
2021/06/30 06:45:42;;;;;;;31.23;23.30;;;;;;;20.01;80.57;100604.94;5032192;28;20022;-80
2021/06/30 06:48:07;;;;;;;33.08;24.70;;;;;;;20.03;80.51;100600.16;5032163;28;20025;-79
2021/06/30 06:50:32;;;;;;;31.73;24.02;;;;;;;19.75;81.31;100598.38;5033503;28;20445;-78
2021/06/30 06:52:58;;;;;;;31.63;23.25;;;;;;;19.80;81.16;100599.78;5031849;28;20366;-78
2021/06/30 06:55:24;;;;;;;34.35;25.17;;;;;;;19.72;81.99;100605.97;5031974;28;20508;-79
2021/06/30 06:57:49;;;;;;;30.47;23.20;;;;;;;19.59;82.43;100598.13;5050588;28;20032;-79
2021/06/30 07:00:15;;;;;;;29.60;23.58;;;;;;;19.65;82.06;100621.19;5054290;28;20025;-80
2021/06/30 07:02:41;;;;;;;26.90;22.55;;;;;;;19.57;82.83;100624.69;5038330;28;20033;-79
2021/06/30 07:05:06;;;;;;;32.90;26.17;;;;;;;19.53;82.26;100605.03;5030032;28;20036;-79
2021/06/30 07:07:32;;;;;;;30.67;23.90;;;;;;;19.46;82.75;100609.38;5055460;28;20389;-78
2021/06/30 07:09:58;;;;;;;30.40;23.35;;;;;;;19.40;83.05;100600.94;5038698;28;20037;-78
2021/06/30 07:12:23;;;;;;;31.42;25.33;;;;;;;19.50;82.37;100623.56;5054874;28;20033;-78
2021/06/30 07:14:50;;;;;;;26.85;22.13;;;;;;;19.48;82.54;100620.97;5038380;28;20032;-79
2021/06/30 07:17:15;;;;;;;31.60;24.65;;;;;;;19.50;81.92;100631.75;5055178;28;20384;-83
2021/06/30 07:19:40;;;;;;;34.53;25.00;;;;;;;19.47;82.16;100624.72;5029794;28;20046;-79
2021/06/30 07:22:06;;;;;;;30.92;23.38;;;;;;;19.45;83.06;100632.19;5038305;28;20028;-78
2021/06/30 07:24:31;;;;;;;31.88;24.20;;;;;;;19.43;82.67;100636.94;5038355;28;20025;-81
2021/06/30 07:26:56;;;;;;;33.15;24.40;;;;;;;19.43;83.47;100636.94;5034764;28;20080;-81
2021/06/30 07:29:22;;;;;;;30.08;23.00;;;;;;;19.26;84.55;100633.13;5018927;28;20037;-79
2021/06/30 07:31:48;;;;;;;34.10;26.73;;;;;;;19.31;83.45;100628.09;5034832;28;20037;-77
2021/06/30 07:34:13;;;;;;;36.30;25.70;;;;;;;19.28;83.20;100633.81;5042766;28;20416;-77
2021/06/30 07:36:39;;;;;;;41.33;28.73;;;;;;;19.29;83.05;100638.28;5020299;28;20049;-77
2021/06/30 07:39:04;;;;;;;34.50;27.52;;;;;;;19.44;83.14;100646.81;5038200;28;20032;-81
2021/06/30 07:41:30;;;;;;;35.42;25.08;;;;;;;19.63;82.33;100650.47;5066027;28;20024;-81
2021/06/30 07:43:55;;;;;;;35.17;25.15;;;;;;;19.66;82.64;100648.31;5035339;28;20033;-78
2021/06/30 07:46:20;;;;;;;31.77;24.10;;;;;;;19.99;81.57;100640.53;5036626;28;20086;-79
2021/06/30 07:48:46;;;;;;;30.73;24.63;;;;;;;19.96;81.29;100636.25;5027905;28;20078;-79
2021/06/30 07:51:11;;;;;;;32.28;25.00;;;;;;;20.14;79.73;100646.31;5038011;28;20021;-78
2021/06/30 07:53:36;;;;;;;33.92;25.08;;;;;;;20.03;80.97;100643.81;5028484;28;20478;-78
2021/06/30 07:56:02;;;;;;;31.00;23.92;;;;;;;19.94;81.65;100632.81;5052761;28;20029;-78
2021/06/30 07:58:28;;;;;;;37.00;27.33;;;;;;;19.91;80.71;100624.06;5024046;28;20017;-78
2021/06/30 08:00:53;;;;;;;34.85;27.33;;;;;;;20.09;80.19;100635.88;5017943;28;20469;-77
2021/06/30 08:03:18;;;;;;;38.25;28.98;;;;;;;20.27;78.89;100643.22;5034317;28;20095;-76
2021/06/30 08:05:44;;;;;;;36.10;27.58;;;;;;;20.30;79.32;100635.56;5035234;28;20079;-77
2021/06/30 08:08:09;;;;;;;37.30;26.63;;;;;;;20.52;78.13;100631.53;5017698;28;20025;-78
2021/06/30 08:10:35;;;;;;;33.30;24.60;;;;;;;20.84;78.03;100634.72;5035975;28;20029;-78
2021/06/30 08:13:00;;;;;;;32.53;24.48;;;;;;;20.94;76.89;100636.34;5038641;28;20032;-77
2021/06/30 08:15:26;;;;;;;30.80;24.98;;;;;;;20.96;76.45;100645.22;5017430;28;20503;-77
2021/06/30 08:17:51;;;;;;;30.83;22.85;;;;;;;20.86;76.50;100646.31;5038543;28;20123;-79
2021/06/30 08:20:17;;;;;;;31.13;23.80;;;;;;;20.45;78.19;100645.97;5032196;28;20512;-79
2021/06/30 08:22:43;;;;;;;32.83;25.30;;;;;;;20.47;77.58;100647.53;5019810;28;20025;-81
2021/06/30 08:25:10;;;;;;;32.83;25.58;;;;;;;20.55;77.22;100653.03;5037097;28;20025;-81
2021/06/30 08:27:36;;;;;;;35.92;25.08;;;;;;;20.57;77.70;100642.00;5037670;28;20043;-80
2021/06/30 08:30:03;;;;;;;32.50;23.95;;;;;;;20.67;77.59;100650.09;5054232;28;20029;-79
2021/06/30 08:32:29;;;;;;;34.05;25.67;;;;;;;20.74;77.44;100643.84;5037021;28;20032;-81
2021/06/30 08:34:54;;;;;;;34.85;26.02;;;;;;;20.73;77.33;100644.03;5037250;28;20037;-84
2021/06/30 08:37:21;;;;;;;32.08;24.05;;;;;;;20.68;77.44;100635.44;5025575;28;20038;-79
2021/06/30 08:39:47;;;;;;;32.83;26.13;;;;;;;20.82;76.53;100643.06;5033532;28;20018;-78
2021/06/30 08:42:14;;;;;;;40.50;28.80;;;;;;;21.00;75.74;100649.34;5033808;28;20388;-81
2021/06/30 08:44:40;;;;;;;31.23;24.05;;;;;;;21.23;75.53;100646.94;5047715;28;20122;-80
2021/06/30 08:47:05;;;;;;;30.63;23.73;;;;;;;21.49;75.30;100645.22;5053770;28;20468;-79
2021/06/30 08:49:32;;;;;;;30.13;23.88;;;;;;;21.69;73.61;100652.16;5037017;28;20079;-81
2021/06/30 08:51:58;;;;;;;31.90;23.60;;;;;;;22.18;71.05;100646.00;5017305;28;20079;-79
2021/06/30 08:54:24;;;;;;;29.33;22.10;;;;;;;22.62;70.79;100649.31;5033545;28;20033;-80
2021/06/30 08:56:51;;;;;;;29.40;22.02;;;;;;;22.89;68.07;100645.41;5017174;28;20057;-81
2021/06/30 08:59:16;;;;;;;28.77;20.38;;;;;;;23.48;65.77;100645.13;5017005;28;20119;-79
2021/06/30 09:01:43;;;;;;;22.47;18.63;;;;;;;23.73;65.07;100642.31;5033423;28;20049;-80
2021/06/30 09:04:10;;;;;;;;;;;;;;;23.69;64.49;100643.69;5033879;28;20021;-82
2021/06/30 09:06:36;;;;;;;23.93;17.57;;;;;;;23.99;64.38;100653.00;5035074;28;20008;-78
2021/06/30 09:09:13;;;;;;;22.90;18.37;;;;;;;23.80;65.48;100648.81;5035834;28;20440;-78
2021/06/30 09:11:39;;;;;;;;;;;;;;;23.76;65.42;100646.63;5030694;28;20025;-77
2021/06/30 09:14:10;;;;;;;20.92;16.63;;;;;;;23.83;63.88;100645.72;5035432;28;19913;-78
2021/06/30 09:19:55;;;;;;;20.75;15.18;;;;;;;23.53;64.74;100652.81;5050878;28;20021;-79
2021/06/30 09:22:26;;;;;;;21.50;15.02;;;;;;;23.60;62.76;100644.75;5050080;28;20033;-78
2021/06/30 09:24:52;;;;;;;19.00;13.75;;;;;;;23.86;61.34;100642.63;5036294;28;20028;-79
2021/06/30 09:27:19;;;;;;;17.10;12.73;;;;;;;24.23;61.78;100641.06;5036142;28;20048;-81
2021/06/30 09:29:45;;;;;;;20.60;13.65;;;;;;;24.64;59.63;100640.78;5052231;28;20021;-79
2021/06/30 09:32:13;;;;;;;19.48;12.68;;;;;;;25.23;58.01;100648.34;5035974;28;20033;-81
2021/06/30 09:34:39;;;;;;;16.80;12.43;;;;;;;25.31;57.18;100650.16;5052879;28;20036;-81
2021/06/30 09:37:07;;;;;;;18.95;13.65;;;;;;;25.15;57.31;100648.38;5052339;28;20041;-80
2021/06/30 09:39:53;;;;;;;16.52;12.95;;;;;;;24.73;60.18;100656.16;5036376;28;20087;-80
2021/06/30 09:42:19;;;;;;;18.38;13.88;;;;;;;24.97;59.01;100654.22;5052723;28;20025;-82
2021/06/30 09:44:44;;;;;;;19.60;12.87;;;;;;;25.24;58.78;100658.28;5052542;28;20036;-80
2021/06/30 09:47:10;;;;;;;19.33;14.03;;;;;;;25.13;58.00;100655.97;5044444;28;20147;-82
2021/06/30 09:49:37;;;;;;;21.55;12.75;;;;;;;25.07;57.08;100646.59;5016262;28;20405;-79
2021/06/30 09:52:06;;;;;;;21.00;12.32;;;;;;;25.07;57.32;100656.72;5016247;28;20029;-81
2021/06/30 09:54:32;;;;;;;15.52;10.73;;;;;;;25.46;57.54;100655.66;5048270;28;20033;-80
2021/06/30 09:57:06;;;;;;;20.27;13.00;;;;;;;25.89;55.44;100658.59;5035007;28;20036;-78
2021/06/30 09:59:35;;;;;;;20.45;12.85;;;;;;;26.01;55.21;100654.31;5026095;28;20572;-79
2021/06/30 10:02:09;;;;;;;18.10;12.25;;;;;;;25.78;54.33;100663.53;5015969;28;20021;-78
2021/06/30 10:04:38;;;;;;;17.73;12.73;;;;;;;25.61;53.91;100657.34;5056633;28;20036;-76
2021/06/30 10:07:09;;;;;;;16.25;11.88;;;;;;;25.37;56.00;100661.25;5051718;28;20025;-77
2021/06/30 10:09:35;;;;;;;17.17;11.00;;;;;;;25.04;58.52;100663.47;5054080;28;20376;-76
2021/06/30 10:12:07;;;;;;;17.40;10.10;;;;;;;24.96;57.90;100656.13;5035063;28;20516;-77
2021/06/30 10:14:33;;;;;;;13.70;10.25;;;;;;;25.42;55.25;100660.69;5049339;28;20025;-77
2021/06/30 10:17:00;;;;;;;14.05;10.45;;;;;;;25.36;54.18;100658.69;5046881;28;20464;-78
2021/06/30 10:19:25;;;;;;;15.30;10.55;;;;;;;25.03;55.90;100644.41;5035215;28;20029;-76
2021/06/30 10:21:50;;;;;;;17.10;9.57;;;;;;;24.80;58.32;100645.28;5034934;28;20495;-77
2021/06/30 10:24:17;;;;;;;16.97;9.77;;;;;;;24.70;59.18;100655.69;5051323;28;20024;-78
2021/06/30 10:26:42;;;;;;;13.38;9.23;;;;;;;25.18;57.98;100651.66;5034649;28;20423;-78
2021/06/30 10:29:08;;;;;;;14.70;9.30;;;;;;;25.18;57.50;100653.53;5041205;28;20059;-77
2021/06/30 10:31:35;;;;;;;14.03;9.33;;;;;;;25.16;57.11;100645.47;5050993;28;20025;-79
2021/06/30 10:34:04;;;;;;;;;;;;;;;24.62;58.08;100651.09;5052619;28;20040;-76
2021/06/30 10:36:51;;;;;;;13.38;9.50;;;;;;;24.48;58.64;100652.72;5055652;28;20375;-78
2021/06/30 10:39:18;;;;;;;14.48;9.77;;;;;;;24.52;59.35;100647.75;5038575;28;20033;-78
2021/06/30 10:41:50;;;;;;;16.05;10.18;;;;;;;24.54;58.10;100641.03;5039052;28;20423;-78
2021/06/30 10:44:18;;;;;;;13.35;8.75;;;;;;;24.64;58.55;100639.91;5037879;28;20029;-77
2021/06/30 10:46:44;;;;;;;15.77;9.43;;;;;;;24.77;59.50;100642.91;5045252;28;20392;-77
2021/06/30 10:49:28;;;;;;;12.50;8.63;;;;;;;25.13;56.77;100633.97;5045307;28;20025;-79
2021/06/30 10:51:59;;;;;;;13.13;8.75;;;;;;;24.45;59.03;100631.09;5044138;28;20021;-77
2021/06/30 10:54:44;;;;;;;15.73;9.35;;;;;;;24.32;57.83;100623.50;5040746;28;20021;-77
2021/06/30 10:57:23;;;;;;;12.52;8.40;;;;;;;24.36;59.26;100622.06;5035106;28;20063;-77
2021/06/30 11:00:01;;;;;;;12.02;8.57;;;;;;;24.81;57.86;100626.88;5043708;28;20021;-77
2021/06/30 11:02:31;;;;;;;12.80;8.75;;;;;;;25.05;55.45;100625.81;5037401;28;20080;-77
2021/06/30 11:04:57;;;;;;;11.68;7.78;;;;;;;24.87;56.97;100612.41;5035687;28;20037;-78
2021/06/30 11:07:32;;;;;;;12.60;7.83;;;;;;;24.96;58.25;100614.91;5064774;28;20083;-77
2021/06/30 11:10:20;;;;;;;11.73;6.97;;;;;;;25.12;56.61;100616.63;5034529;28;20025;-77
2021/06/30 11:12:58;;;;;;;11.65;7.32;;;;;;;25.16;55.28;100617.97;5041283;28;20036;-77